createdAt,value
2023-02-04T00:00:28.926Z,10.06
2023-02-04T00:01:28.642Z,10.12
2023-02-04T00:02:28.676Z,10.06
2023-02-04T00:03:28.618Z,10.06
2023-02-04T00:04:28.611Z,10.08
2023-02-04T00:05:28.624Z,10.10
2023-02-04T00:06:28.593Z,10.06
2023-02-04T00:07:28.593Z,10.06
2023-02-04T00:08:28.578Z,10.06
2023-02-04T00:09:28.575Z,10.08
2023-02-04T00:10:28.763Z,10.03
2023-02-04T00:11:28.560Z,10.01
2023-02-04T00:12:28.547Z,9.98
2023-02-04T00:13:28.537Z,10.02
2023-02-04T00:14:28.535Z,9.96
2023-02-04T00:15:28.523Z,9.98
2023-02-04T00:16:28.538Z,10.02
2023-02-04T00:17:28.506Z,9.94
2023-02-04T00:18:28.495Z,10.01
2023-02-04T00:19:28.499Z,9.96
2023-02-04T00:20:28.897Z,9.99
2023-02-04T00:21:28.478Z,9.99
2023-02-04T00:22:28.468Z,9.96
2023-02-04T00:23:28.460Z,9.94
2023-02-04T00:24:28.454Z,9.98
2023-02-04T00:25:28.451Z,9.93
2023-02-04T00:26:28.432Z,9.85
2023-02-04T00:27:28.428Z,9.94
2023-02-04T00:28:28.418Z,9.96
2023-02-04T00:29:28.414Z,10.01
2023-02-04T00:30:28.629Z,9.90
2023-02-04T00:31:28.494Z,9.96
2023-02-04T00:32:28.405Z,9.98
2023-02-04T00:33:28.441Z,9.84
2023-02-04T00:34:28.392Z,9.88
2023-02-04T00:35:28.363Z,9.87
2023-02-04T00:36:28.366Z,9.91
2023-02-04T00:37:28.352Z,9.94
2023-02-04T00:38:28.349Z,9.85
2023-02-04T00:39:28.348Z,9.85
2023-02-04T00:40:28.665Z,9.93
2023-02-04T00:41:28.325Z,9.93
2023-02-04T00:42:28.325Z,9.87
2023-02-04T00:43:28.310Z,9.87
2023-02-04T00:44:28.296Z,9.84
2023-02-04T00:45:28.301Z,9.85
2023-02-04T00:46:28.282Z,9.91
2023-02-04T00:47:28.280Z,9.87
2023-02-04T00:48:28.275Z,9.85
2023-02-04T00:49:28.262Z,9.81
2023-02-04T00:50:28.589Z,9.85
2023-02-04T00:51:28.254Z,9.77
2023-02-04T00:52:28.238Z,9.81
2023-02-04T00:53:28.235Z,9.83
2023-02-04T00:54:28.228Z,9.72
2023-02-04T00:55:28.228Z,9.81
2023-02-04T00:56:28.212Z,9.85
2023-02-04T00:57:28.200Z,9.80
2023-02-04T00:58:28.195Z,9.83
2023-02-04T00:59:28.188Z,9.78
2023-02-04T01:00:28.403Z,9.88
2023-02-04T01:01:28.194Z,9.83
2023-02-04T01:02:28.210Z,9.84
2023-02-04T01:03:28.159Z,9.78
2023-02-04T01:04:28.148Z,9.80
2023-02-04T01:05:28.139Z,9.81
2023-02-04T01:06:28.138Z,9.84
2023-02-04T01:07:28.134Z,9.83
2023-02-04T01:08:28.120Z,9.80
2023-02-04T01:09:28.123Z,9.80
2023-02-04T01:10:28.337Z,9.78
2023-02-04T01:11:28.088Z,9.78
2023-02-04T01:12:28.091Z,9.80
2023-02-04T01:13:28.082Z,9.78
2023-02-04T01:14:28.072Z,9.83
2023-02-04T01:15:28.066Z,9.78
2023-02-04T01:16:28.064Z,9.77
2023-02-04T01:17:28.044Z,9.75
2023-02-04T01:18:28.043Z,9.78
2023-02-04T01:19:28.034Z,9.85
2023-02-04T01:20:28.248Z,9.83
2023-02-04T01:21:28.036Z,9.72
2023-02-04T01:22:28.022Z,9.84
2023-02-04T01:23:28.015Z,9.80
2023-02-04T01:24:27.995Z,9.78
2023-02-04T01:25:27.993Z,9.73
2023-02-04T01:26:27.974Z,9.80
2023-02-04T01:27:27.974Z,9.70
2023-02-04T01:28:27.966Z,9.80
2023-02-04T01:29:27.970Z,9.59
2023-02-04T01:30:28.036Z,9.67
2023-02-04T01:31:27.948Z,9.73
2023-02-04T01:32:27.942Z,9.69
2023-02-04T01:33:27.932Z,9.72
2023-02-04T01:34:27.914Z,9.70
2023-02-04T01:35:27.915Z,9.70
2023-02-04T01:36:27.902Z,9.70
2023-02-04T01:37:27.896Z,9.69
2023-02-04T01:38:27.886Z,9.65
2023-02-04T01:39:27.887Z,9.70
2023-02-04T01:40:28.077Z,9.65
2023-02-04T01:41:27.870Z,9.72
2023-02-04T01:42:27.860Z,9.70
2023-02-04T01:43:27.858Z,9.65
2023-02-04T01:44:27.841Z,9.67
2023-02-04T01:45:27.836Z,9.72
2023-02-04T01:46:27.824Z,9.69
2023-02-04T01:47:27.819Z,9.63
2023-02-04T01:48:27.813Z,9.70
2023-02-04T01:49:27.801Z,9.69
2023-02-04T01:50:27.806Z,9.63
2023-02-04T01:51:27.781Z,9.55
2023-02-04T01:52:27.788Z,9.62
2023-02-04T01:53:27.765Z,9.65
2023-02-04T01:54:27.768Z,9.54
2023-02-04T01:55:27.754Z,9.66
2023-02-04T01:56:27.759Z,9.59
2023-02-04T01:57:27.745Z,9.57
2023-02-04T01:58:27.727Z,9.62
2023-02-04T01:59:27.728Z,9.59
2023-02-04T02:00:27.892Z,9.51
2023-02-04T02:01:27.726Z,9.52
2023-02-04T02:02:27.719Z,9.51
2023-02-04T02:03:27.695Z,9.57
2023-02-04T02:04:27.684Z,9.52
2023-02-04T02:05:27.676Z,9.54
2023-02-04T02:06:27.674Z,9.55
2023-02-04T02:07:27.655Z,9.50
2023-02-04T02:08:27.652Z,9.54
2023-02-04T02:09:27.658Z,9.51
2023-02-04T02:10:27.670Z,9.51
2023-02-04T02:11:27.645Z,9.51
2023-02-04T02:12:27.622Z,9.51
2023-02-04T02:13:27.608Z,9.57
2023-02-04T02:14:27.616Z,9.62
2023-02-04T02:15:27.621Z,9.57
2023-02-04T02:16:27.639Z,9.62
2023-02-04T02:17:27.579Z,9.54
2023-02-04T02:18:27.572Z,9.67
2023-02-04T02:19:27.568Z,9.57
2023-02-04T02:20:27.556Z,9.65
2023-02-04T02:21:27.573Z,9.65
2023-02-04T02:22:27.554Z,9.50
2023-02-04T02:23:27.525Z,9.55
2023-02-04T02:24:27.534Z,9.60
2023-02-04T02:25:27.525Z,9.60
2023-02-04T02:26:27.513Z,9.54
2023-02-04T02:27:27.506Z,9.55
2023-02-04T02:28:27.512Z,9.63
2023-02-04T02:29:27.494Z,9.44
2023-02-04T02:30:27.492Z,9.54
2023-02-04T02:31:27.573Z,9.54
2023-02-04T02:32:27.469Z,9.60
2023-02-04T02:33:27.460Z,9.57
2023-02-04T02:34:27.453Z,9.54
2023-02-04T02:35:27.440Z,9.48
2023-02-04T02:36:27.431Z,9.52
2023-02-04T02:37:27.427Z,9.55
2023-02-04T02:38:27.421Z,9.57
2023-02-04T02:39:27.403Z,9.52
2023-02-04T02:40:27.424Z,9.52
2023-02-04T02:41:27.400Z,9.54
2023-02-04T02:42:27.385Z,9.54
2023-02-04T02:43:27.372Z,9.48
2023-02-04T02:44:27.367Z,9.55
2023-02-04T02:45:27.373Z,9.57
2023-02-04T02:46:27.396Z,9.59
2023-02-04T02:47:27.345Z,9.50
2023-02-04T02:48:27.336Z,9.48
2023-02-04T02:49:27.327Z,9.57
2023-02-04T02:50:27.327Z,9.52
2023-02-04T02:51:27.317Z,9.50
2023-02-04T02:52:27.301Z,9.51
2023-02-04T02:53:27.290Z,9.54
2023-02-04T02:54:27.292Z,9.51
2023-02-04T02:55:27.276Z,9.50
2023-02-04T02:56:27.265Z,9.51
2023-02-04T02:57:27.254Z,9.51
2023-02-04T02:58:27.250Z,9.47
2023-02-04T02:59:27.247Z,9.47
2023-02-04T03:00:27.239Z,9.50
2023-02-04T03:01:27.332Z,9.52
2023-02-04T03:02:27.236Z,9.47
2023-02-04T03:03:27.214Z,9.48
2023-02-04T03:04:27.198Z,9.44
2023-02-04T03:05:27.212Z,9.45
2023-02-04T03:06:27.191Z,9.50
2023-02-04T03:07:27.185Z,9.50
2023-02-04T03:08:27.171Z,9.57
2023-02-04T03:09:27.164Z,9.54
2023-02-04T03:10:27.176Z,9.55
2023-02-04T03:11:27.147Z,9.47
2023-02-04T03:12:27.135Z,9.48
2023-02-04T03:13:27.138Z,9.45
2023-02-04T03:14:27.116Z,9.45
2023-02-04T03:15:27.234Z,9.48
2023-02-04T03:16:27.105Z,9.34
2023-02-04T03:17:27.096Z,9.42
2023-02-04T03:18:27.094Z,9.40
2023-02-04T03:19:27.082Z,9.37
2023-02-04T03:20:27.077Z,9.40
2023-02-04T03:21:27.075Z,9.37
2023-02-04T03:22:27.066Z,9.37
2023-02-04T03:23:27.056Z,9.42
2023-02-04T03:24:27.049Z,9.29
2023-02-04T03:25:27.037Z,9.32
2023-02-04T03:26:27.035Z,9.27
2023-02-04T03:27:27.025Z,9.36
2023-02-04T03:28:27.026Z,9.29
2023-02-04T03:29:28.448Z,9.29
2023-02-04T03:30:27.002Z,9.34
2023-02-04T03:31:27.103Z,9.36
2023-02-04T03:32:26.995Z,9.36
2023-02-04T03:33:27.074Z,9.33
2023-02-04T03:34:26.974Z,9.37
2023-02-04T03:35:26.977Z,9.32
2023-02-04T03:36:26.960Z,9.36
2023-02-04T03:37:26.949Z,9.30
2023-02-04T03:38:26.956Z,9.29
2023-02-04T03:39:26.935Z,9.37
2023-02-04T03:40:26.922Z,9.34
2023-02-04T03:41:26.917Z,9.34
2023-02-04T03:42:26.914Z,9.27
2023-02-04T03:43:26.999Z,9.30
2023-02-04T03:44:26.909Z,9.34
2023-02-04T03:45:28.530Z,9.40
2023-02-04T03:46:26.922Z,9.27
2023-02-04T03:47:26.871Z,9.33
2023-02-04T03:48:26.875Z,9.30
2023-02-04T03:49:26.862Z,9.24
2023-02-04T03:50:26.844Z,9.30
2023-02-04T03:51:26.836Z,9.36
2023-02-04T03:52:26.840Z,9.36
2023-02-04T03:53:26.819Z,9.34
2023-02-04T03:54:26.818Z,9.34
2023-02-04T03:55:26.801Z,9.34
2023-02-04T03:56:26.810Z,9.44
2023-02-04T03:57:26.786Z,9.33
2023-02-04T03:58:26.783Z,9.33
2023-02-04T03:59:26.776Z,9.32
2023-02-04T04:00:26.765Z,9.34
2023-02-04T04:01:26.796Z,9.44
2023-02-04T04:02:26.809Z,9.37
2023-02-04T04:03:26.751Z,9.36
2023-02-04T04:04:26.739Z,9.36
2023-02-04T04:05:26.736Z,9.42
2023-02-04T04:06:26.723Z,9.29
2023-02-04T04:07:26.729Z,9.33
2023-02-04T04:08:26.715Z,9.29
2023-02-04T04:09:26.709Z,9.32
2023-02-04T04:10:26.689Z,9.36
2023-02-04T04:11:26.676Z,9.34
2023-02-04T04:12:26.693Z,9.26
2023-02-04T04:13:26.670Z,9.32
2023-02-04T04:14:26.653Z,9.27
2023-02-04T04:15:26.649Z,9.24
2023-02-04T04:16:26.638Z,9.26
2023-02-04T04:17:26.635Z,9.29
2023-02-04T04:18:26.623Z,9.24
2023-02-04T04:19:26.620Z,9.29
2023-02-04T04:20:26.614Z,9.29
2023-02-04T04:21:26.599Z,9.30
2023-02-04T04:22:26.622Z,9.22
2023-02-04T04:23:26.576Z,9.30
2023-02-04T04:24:26.578Z,9.27
2023-02-04T04:25:26.570Z,9.24
2023-02-04T04:26:26.556Z,9.23
2023-02-04T04:27:26.547Z,9.19
2023-02-04T04:28:26.539Z,9.15
2023-02-04T04:29:26.538Z,9.11
2023-02-04T04:30:26.528Z,9.04
2023-02-04T04:31:26.636Z,9.22
2023-02-04T04:32:26.527Z,9.22
2023-02-04T04:33:26.499Z,9.14
2023-02-04T04:34:26.502Z,9.19
2023-02-04T04:35:26.482Z,9.11
2023-02-04T04:36:26.477Z,9.15
2023-02-04T04:37:26.465Z,9.08
2023-02-04T04:38:26.449Z,9.08
2023-02-04T04:39:26.445Z,9.11
2023-02-04T04:40:26.440Z,9.19
2023-02-04T04:41:26.436Z,9.16
2023-02-04T04:42:26.430Z,9.27
2023-02-04T04:43:26.442Z,9.27
2023-02-04T04:44:26.406Z,9.18
2023-02-04T04:45:26.411Z,9.16
2023-02-04T04:46:26.397Z,9.24
2023-02-04T04:47:26.378Z,9.18
2023-02-04T04:48:26.374Z,9.16
2023-02-04T04:49:26.372Z,9.14
2023-02-04T04:50:26.353Z,9.15
2023-02-04T04:51:26.346Z,9.18
2023-02-04T04:52:26.344Z,9.16
2023-02-04T04:53:26.331Z,9.14
2023-02-04T04:54:26.324Z,9.15
2023-02-04T04:55:26.322Z,9.06
2023-02-04T04:56:26.320Z,9.09
2023-02-04T04:57:26.301Z,9.08
2023-02-04T04:58:26.285Z,9.12
2023-02-04T04:59:26.282Z,9.11
2023-02-04T05:00:26.268Z,9.03
2023-02-04T05:01:26.263Z,9.12
2023-02-04T05:02:26.260Z,9.15
2023-02-04T05:03:26.266Z,9.09
2023-02-04T05:04:26.300Z,9.14
2023-02-04T05:05:26.240Z,9.03
2023-02-04T05:06:26.233Z,8.99
2023-02-04T05:07:26.224Z,9.04
2023-02-04T05:08:26.210Z,9.08
2023-02-04T05:09:26.203Z,8.98
2023-02-04T05:10:26.198Z,8.96
2023-02-04T05:11:26.208Z,9.04
2023-02-04T05:12:26.193Z,9.01
2023-02-04T05:13:26.183Z,8.99
2023-02-04T05:14:26.179Z,9.06
2023-02-04T05:15:26.158Z,9.14
2023-02-04T05:16:26.201Z,9.06
2023-02-04T05:17:28.423Z,9.04
2023-02-04T05:18:26.134Z,9.04
2023-02-04T05:19:26.125Z,9.08
2023-02-04T05:20:26.140Z,9.08
2023-02-04T05:21:26.107Z,9.01
2023-02-04T05:22:26.103Z,8.98
2023-02-04T05:23:26.095Z,9.01
2023-02-04T05:24:26.092Z,9.08
2023-02-04T05:25:26.073Z,9.04
2023-02-04T05:26:30.786Z,9.04
2023-02-04T05:27:26.059Z,9.08
2023-02-04T05:28:26.053Z,9.04
2023-02-04T05:29:26.050Z,8.99
2023-02-04T05:30:26.144Z,8.96
2023-02-04T05:31:26.046Z,8.98
2023-02-04T05:32:26.028Z,8.95
2023-02-04T05:33:26.016Z,8.98
2023-02-04T05:34:26.006Z,8.99
2023-02-04T05:35:25.992Z,8.99
2023-02-04T05:36:26.000Z,8.99
2023-02-04T05:37:25.979Z,8.98
2023-02-04T05:38:25.972Z,8.98
2023-02-04T05:39:25.958Z,8.98
2023-02-04T05:40:25.956Z,8.98
2023-02-04T05:41:25.944Z,8.99
2023-02-04T05:42:25.954Z,9.09
2023-02-04T05:43:25.926Z,8.93
2023-02-04T05:44:27.474Z,8.98
2023-02-04T05:45:25.942Z,8.99
2023-02-04T05:46:25.904Z,8.99
2023-02-04T05:47:25.888Z,9.01
2023-02-04T05:48:25.889Z,9.04
2023-02-04T05:49:25.893Z,8.96
2023-02-04T05:50:25.866Z,8.98
2023-02-04T05:51:25.862Z,9.03
2023-02-04T05:52:25.853Z,8.96
2023-02-04T05:53:26.255Z,8.99
2023-02-04T05:54:25.833Z,8.95
2023-02-04T05:55:25.830Z,8.95
2023-02-04T05:56:25.821Z,8.96
2023-02-04T05:57:25.808Z,9.01
2023-02-04T05:58:25.809Z,8.95
2023-02-04T05:59:25.793Z,8.95
2023-02-04T06:00:25.794Z,8.98
2023-02-04T06:01:25.775Z,9.01
2023-02-04T06:02:25.767Z,9.01
2023-02-04T06:03:25.818Z,8.98
2023-02-04T06:04:25.843Z,8.92
2023-02-04T06:05:25.742Z,8.99
2023-02-04T06:06:25.734Z,8.98
2023-02-04T06:07:25.722Z,8.77
2023-02-04T06:08:25.711Z,8.86
2023-02-04T06:09:25.715Z,8.81
2023-02-04T06:10:25.697Z,8.92
2023-02-04T06:11:25.698Z,8.96
2023-02-04T06:12:25.682Z,8.93
2023-02-04T06:13:25.681Z,8.99
2023-02-04T06:14:25.682Z,8.99
2023-02-04T06:15:25.659Z,8.96
2023-02-04T06:16:25.714Z,8.96
2023-02-04T06:17:25.643Z,8.95
2023-02-04T06:18:25.637Z,8.98
2023-02-04T06:19:25.621Z,8.98
2023-02-04T06:20:25.627Z,8.95
2023-02-04T06:21:25.615Z,8.96
2023-02-04T06:22:25.604Z,8.98
2023-02-04T06:23:25.592Z,9.03
2023-02-04T06:24:25.596Z,8.96
2023-02-04T06:25:25.577Z,8.99
2023-02-04T06:26:25.564Z,8.95
2023-02-04T06:27:25.555Z,8.95
2023-02-04T06:28:25.563Z,8.99
2023-02-04T06:29:25.537Z,8.95
2023-02-04T06:30:25.542Z,8.80
2023-02-04T06:31:25.643Z,8.90
2023-02-04T06:32:25.522Z,8.80
2023-02-04T06:33:25.521Z,8.95
2023-02-04T06:34:25.504Z,8.96
2023-02-04T06:35:25.493Z,8.95
2023-02-04T06:36:25.481Z,8.92
2023-02-04T06:37:25.486Z,8.95
2023-02-04T06:38:25.467Z,8.95
2023-02-04T06:39:25.464Z,8.86
2023-02-04T06:40:25.460Z,8.83
2023-02-04T06:41:25.447Z,8.89
2023-02-04T06:42:25.444Z,8.83
2023-02-04T06:43:25.459Z,8.86
2023-02-04T06:44:25.418Z,8.86
2023-02-04T06:45:25.413Z,8.81
2023-02-04T06:46:25.468Z,8.90
2023-02-04T06:47:25.394Z,8.85
2023-02-04T06:48:25.390Z,8.85
2023-02-04T06:49:25.388Z,8.80
2023-02-04T06:50:25.368Z,8.93
2023-02-04T06:51:25.369Z,8.80
2023-02-04T06:52:25.348Z,8.80
2023-02-04T06:53:25.348Z,8.95
2023-02-04T06:54:25.332Z,8.88
2023-02-04T06:55:25.331Z,8.95
2023-02-04T06:56:25.326Z,8.89
2023-02-04T06:57:25.321Z,8.96
2023-02-04T06:58:25.299Z,8.81
2023-02-04T06:59:25.298Z,8.85
2023-02-04T07:00:25.294Z,8.86
2023-02-04T07:01:25.331Z,8.88
2023-02-04T07:02:25.325Z,8.90
2023-02-04T07:03:25.268Z,8.75
2023-02-04T07:04:25.266Z,8.83
2023-02-04T07:05:25.292Z,8.81
2023-02-04T07:06:25.230Z,8.95
2023-02-04T07:07:25.250Z,8.81
2023-02-04T07:08:25.226Z,8.90
2023-02-04T07:09:25.226Z,8.80
2023-02-04T07:10:25.234Z,8.81
2023-02-04T07:11:25.207Z,8.81
2023-02-04T07:12:25.189Z,8.78
2023-02-04T07:13:25.190Z,8.80
2023-02-04T07:14:25.170Z,8.85
2023-02-04T07:15:25.162Z,8.85
2023-02-04T07:16:25.151Z,8.85
2023-02-04T07:17:25.140Z,8.78
2023-02-04T07:18:25.133Z,8.86
2023-02-04T07:19:25.134Z,8.81
2023-02-04T07:20:25.124Z,8.80
2023-02-04T07:21:25.104Z,8.80
2023-02-04T07:22:25.105Z,8.85
2023-02-04T07:23:25.098Z,8.83
2023-02-04T07:24:25.113Z,8.89
2023-02-04T07:25:25.076Z,8.90
2023-02-04T07:26:25.075Z,8.89
2023-02-04T07:27:25.060Z,8.90
2023-02-04T07:28:25.051Z,8.92
2023-02-04T07:29:25.960Z,8.80
2023-02-04T07:30:25.047Z,8.90
2023-02-04T07:31:25.159Z,8.88
2023-02-04T07:32:25.018Z,8.92
2023-02-04T07:33:25.008Z,8.93
2023-02-04T07:34:25.012Z,8.98
2023-02-04T07:35:24.989Z,9.03
2023-02-04T07:36:25.027Z,8.96
2023-02-04T07:37:24.973Z,8.90
2023-02-04T07:38:24.963Z,9.03
2023-02-04T07:39:24.958Z,8.92
2023-02-04T07:40:24.945Z,8.99
2023-02-04T07:41:24.936Z,9.01
2023-02-04T07:42:24.932Z,8.96
2023-02-04T07:43:24.924Z,9.01
2023-02-04T07:44:24.911Z,8.98
2023-02-04T07:45:24.901Z,8.95
2023-02-04T07:46:24.969Z,8.95
2023-02-04T07:47:24.886Z,8.99
2023-02-04T07:48:24.873Z,9.03
2023-02-04T07:49:24.868Z,8.90
2023-02-04T07:50:24.852Z,8.90
2023-02-04T07:51:26.042Z,8.88
2023-02-04T07:52:24.848Z,8.80
2023-02-04T07:53:24.840Z,8.80
2023-02-04T07:54:24.830Z,8.81
2023-02-04T07:55:24.820Z,8.86
2023-02-04T07:56:24.810Z,8.98
2023-02-04T07:57:24.808Z,8.90
2023-02-04T07:58:24.789Z,8.88
2023-02-04T07:59:24.794Z,8.83
2023-02-04T08:00:24.779Z,8.92
2023-02-04T08:01:24.793Z,8.80
2023-02-04T08:02:24.772Z,8.83
2023-02-04T08:03:24.749Z,8.80
2023-02-04T08:04:24.743Z,8.80
2023-02-04T08:05:24.731Z,8.81
2023-02-04T08:06:24.720Z,8.85
2023-02-04T08:07:24.717Z,8.93
2023-02-04T08:08:24.704Z,8.86
2023-02-04T08:09:24.697Z,8.81
2023-02-04T08:10:24.689Z,8.80
2023-02-04T08:11:24.693Z,8.88
2023-02-04T08:12:24.676Z,8.92
2023-02-04T08:13:24.660Z,8.85
2023-02-04T08:14:24.660Z,8.92
2023-02-04T08:15:24.646Z,8.85
2023-02-04T08:16:24.702Z,8.85
2023-02-04T08:17:24.628Z,8.89
2023-02-04T08:18:24.622Z,8.96
2023-02-04T08:19:24.621Z,8.95
2023-02-04T08:20:24.620Z,8.98
2023-02-04T08:21:24.593Z,8.95
2023-02-04T08:22:24.594Z,8.98
2023-02-04T08:23:24.578Z,8.99
2023-02-04T08:24:24.579Z,8.99
2023-02-04T08:25:24.567Z,8.90
2023-02-04T08:26:24.556Z,9.03
2023-02-04T08:27:24.546Z,9.04
2023-02-04T08:28:24.541Z,8.93
2023-02-04T08:29:24.526Z,8.95
2023-02-04T08:30:24.517Z,8.93
2023-02-04T08:31:24.645Z,8.99
2023-02-04T08:32:24.502Z,8.99
2023-02-04T08:33:24.496Z,8.98
2023-02-04T08:34:24.485Z,8.98
2023-02-04T08:35:24.479Z,9.01
2023-02-04T08:36:24.471Z,8.96
2023-02-04T08:37:24.457Z,8.93
2023-02-04T08:38:24.457Z,8.98
2023-02-04T08:39:24.441Z,8.93
2023-02-04T08:40:24.458Z,8.99
2023-02-04T08:41:24.437Z,9.04
2023-02-04T08:42:24.417Z,8.96
2023-02-04T08:43:24.407Z,9.03
2023-02-04T08:44:24.409Z,8.99
2023-02-04T08:45:24.396Z,8.98
2023-02-04T08:46:24.427Z,8.95
2023-02-04T08:47:24.386Z,8.95
2023-02-04T08:48:24.385Z,8.98
2023-02-04T08:49:24.379Z,8.99
2023-02-04T08:50:24.367Z,9.01
2023-02-04T08:51:24.365Z,8.99
2023-02-04T08:52:24.363Z,8.96
2023-02-04T08:53:24.359Z,9.03
2023-02-04T08:54:24.341Z,8.98
2023-02-04T08:55:24.334Z,9.09
2023-02-04T08:56:24.317Z,9.03
2023-02-04T08:57:24.322Z,9.11
2023-02-04T08:58:24.308Z,9.09
2023-02-04T08:59:24.306Z,9.09
2023-02-04T09:00:24.343Z,9.14
2023-02-04T09:01:24.333Z,9.04
2023-02-04T09:02:24.336Z,9.12
2023-02-04T09:03:24.279Z,9.11
2023-02-04T09:04:24.267Z,9.18
2023-02-04T09:05:24.260Z,9.11
2023-02-04T09:06:24.254Z,9.11
2023-02-04T09:07:24.247Z,9.24
2023-02-04T09:08:24.245Z,9.26
2023-02-04T09:09:26.204Z,9.19
2023-02-04T09:10:24.252Z,9.19
2023-02-04T09:11:24.213Z,9.22
2023-02-04T09:12:24.204Z,9.15
2023-02-04T09:13:24.193Z,9.22
2023-02-04T09:14:24.188Z,9.24
2023-02-04T09:15:24.183Z,9.29
2023-02-04T09:16:24.230Z,9.30
2023-02-04T09:17:24.174Z,9.24
2023-02-04T09:18:24.162Z,9.27
2023-02-04T09:19:24.176Z,9.27
2023-02-04T09:20:24.182Z,9.26
2023-02-04T09:21:24.132Z,9.30
2023-02-04T09:22:24.129Z,9.26
2023-02-04T09:23:24.131Z,9.26
2023-02-04T09:24:24.116Z,9.29
2023-02-04T09:25:24.104Z,9.30
2023-02-04T09:26:24.108Z,9.29
2023-02-04T09:27:24.095Z,9.33
2023-02-04T09:28:24.084Z,9.32
2023-02-04T09:29:24.072Z,9.37
2023-02-04T09:30:24.066Z,9.36
2023-02-04T09:31:24.153Z,9.37
2023-02-04T09:32:24.055Z,9.41
2023-02-04T09:33:24.050Z,9.42
2023-02-04T09:34:24.041Z,9.40
2023-02-04T09:35:24.028Z,9.37
2023-02-04T09:36:24.025Z,9.40
2023-02-04T09:37:24.010Z,9.37
2023-02-04T09:38:24.003Z,9.50
2023-02-04T09:39:23.990Z,9.47
2023-02-04T09:40:23.992Z,9.48
2023-02-04T09:41:23.980Z,9.50
2023-02-04T09:42:23.976Z,9.47
2023-02-04T09:43:23.966Z,9.50
2023-02-04T09:44:23.961Z,9.45
2023-02-04T09:45:23.963Z,9.45
2023-02-04T09:46:23.945Z,9.48
2023-02-04T09:47:23.976Z,9.51
2023-02-04T09:48:23.938Z,9.47
2023-02-04T09:49:23.932Z,9.52
2023-02-04T09:50:23.915Z,9.48
2023-02-04T09:51:23.912Z,9.51
2023-02-04T09:52:23.902Z,9.50
2023-02-04T09:53:23.885Z,9.54
2023-02-04T09:54:23.877Z,9.44
2023-02-04T09:55:23.871Z,9.57
2023-02-04T09:56:23.857Z,9.55
2023-02-04T09:57:23.848Z,9.55
2023-02-04T09:58:23.848Z,9.63
2023-02-04T09:59:23.836Z,9.62
2023-02-04T10:00:23.822Z,9.63
2023-02-04T10:01:23.863Z,9.59
2023-02-04T10:02:23.802Z,9.51
2023-02-04T10:03:23.824Z,9.65
2023-02-04T10:04:23.784Z,9.51
2023-02-04T10:05:23.791Z,9.52
2023-02-04T10:06:23.784Z,9.55
2023-02-04T10:07:23.769Z,9.52
2023-02-04T10:08:23.761Z,9.57
2023-02-04T10:09:23.748Z,9.59
2023-02-04T10:10:23.741Z,9.51
2023-02-04T10:11:23.732Z,9.62
2023-02-04T10:12:23.725Z,9.63
2023-02-04T10:13:23.713Z,9.60
2023-02-04T10:14:23.708Z,9.63
2023-02-04T10:15:23.693Z,9.67
2023-02-04T10:16:23.751Z,9.73
2023-02-04T10:17:23.695Z,9.69
2023-02-04T10:18:23.689Z,9.81
2023-02-04T10:19:23.676Z,9.84
2023-02-04T10:20:23.664Z,9.96
2023-02-04T10:21:23.653Z,9.94
2023-02-04T10:22:23.690Z,9.96
2023-02-04T10:23:23.642Z,9.98
2023-02-04T10:24:23.631Z,10.03
2023-02-04T10:25:23.625Z,9.96
2023-02-04T10:26:23.621Z,10.01
2023-02-04T10:27:23.613Z,9.98
2023-02-04T10:28:23.611Z,10.14
2023-02-04T10:29:23.590Z,10.02
2023-02-04T10:30:23.612Z,10.06
2023-02-04T10:31:23.666Z,10.03
2023-02-04T10:32:23.578Z,10.10
2023-02-04T10:33:23.577Z,10.10
2023-02-04T10:34:23.574Z,10.08
2023-02-04T10:35:23.556Z,10.02
2023-02-04T10:36:23.565Z,10.05
2023-02-04T10:37:23.542Z,10.03
2023-02-04T10:38:23.545Z,10.05
2023-02-04T10:39:23.549Z,10.06
2023-02-04T10:40:23.524Z,10.09
2023-02-04T10:41:23.516Z,10.10
2023-02-04T10:42:23.514Z,10.08
2023-02-04T10:43:23.512Z,10.03
2023-02-04T10:44:23.508Z,10.03
2023-02-04T10:45:23.487Z,10.06
2023-02-04T10:46:23.506Z,10.17
2023-02-04T10:47:23.475Z,10.14
2023-02-04T10:48:23.483Z,10.10
2023-02-04T10:49:23.478Z,10.09
2023-02-04T10:50:23.461Z,10.08
2023-02-04T10:51:23.459Z,10.08
2023-02-04T10:52:23.440Z,10.18
2023-02-04T10:53:23.438Z,10.21
2023-02-04T10:54:23.428Z,10.14
2023-02-04T10:55:23.439Z,10.08
2023-02-04T10:56:23.424Z,10.17
2023-02-04T10:57:23.408Z,10.16
2023-02-04T10:58:23.398Z,10.21
2023-02-04T10:59:23.399Z,10.17
2023-02-04T11:00:23.391Z,10.28
2023-02-04T11:01:23.390Z,10.23
2023-02-04T11:02:23.376Z,10.30
2023-02-04T11:03:23.503Z,10.39
2023-02-04T11:04:23.368Z,10.31
2023-02-04T11:05:23.353Z,10.30
2023-02-04T11:06:23.345Z,10.39
2023-02-04T11:07:23.351Z,10.35
2023-02-04T11:08:23.335Z,10.34
2023-02-04T11:09:23.327Z,10.38
2023-02-04T11:10:23.324Z,10.38
2023-02-04T11:11:23.319Z,10.39
2023-02-04T11:12:23.311Z,10.49
2023-02-04T11:13:23.301Z,10.35
2023-02-04T11:14:23.294Z,10.38
2023-02-04T11:15:23.284Z,10.39
2023-02-04T11:16:23.432Z,10.31
2023-02-04T11:17:23.277Z,10.36
2023-02-04T11:18:23.274Z,10.27
2023-02-04T11:19:23.261Z,10.17
2023-02-04T11:20:23.253Z,10.17
2023-02-04T11:21:23.255Z,10.30
2023-02-04T11:22:23.245Z,10.27
2023-02-04T11:23:23.233Z,10.35
2023-02-04T11:24:23.244Z,10.36
2023-02-04T11:25:23.219Z,10.35
2023-02-04T11:26:23.215Z,10.36
2023-02-04T11:27:23.221Z,10.28
2023-02-04T11:28:23.201Z,10.30
2023-02-04T11:29:23.197Z,10.35
2023-02-04T11:30:23.188Z,10.27
2023-02-04T11:31:23.286Z,10.34
2023-02-04T11:32:23.166Z,10.34
2023-02-04T11:33:23.162Z,10.35
2023-02-04T11:34:23.156Z,10.31
2023-02-04T11:35:23.152Z,10.43
2023-02-04T11:36:23.155Z,10.52
2023-02-04T11:37:23.164Z,10.54
2023-02-04T11:38:23.135Z,10.54
2023-02-04T11:39:23.124Z,10.45
2023-02-04T11:40:23.121Z,10.35
2023-02-04T11:41:23.113Z,10.36
2023-02-04T11:42:23.118Z,10.31
2023-02-04T11:43:23.098Z,10.42
2023-02-04T11:44:23.098Z,10.38
2023-02-04T11:45:23.081Z,10.42
2023-02-04T11:46:23.089Z,10.48
2023-02-04T11:47:23.068Z,10.46
2023-02-04T11:48:23.071Z,10.60
2023-02-04T11:49:23.054Z,10.43
2023-02-04T11:50:23.040Z,10.62
2023-02-04T11:51:23.035Z,10.45
2023-02-04T11:52:23.039Z,10.54
2023-02-04T11:53:23.025Z,10.52
2023-02-04T11:54:23.020Z,10.43
2023-02-04T11:55:23.014Z,10.45
2023-02-04T11:56:23.012Z,10.49
2023-02-04T11:57:23.000Z,10.49
2023-02-04T11:58:23.000Z,10.49
2023-02-04T11:59:22.985Z,10.49
2023-02-04T12:00:22.987Z,10.45
2023-02-04T12:01:22.972Z,10.45
2023-02-04T12:02:22.981Z,10.49
2023-02-04T12:03:23.010Z,10.52
2023-02-04T12:04:22.954Z,10.48
2023-02-04T12:05:22.942Z,10.55
2023-02-04T12:06:22.944Z,10.42
2023-02-04T12:07:22.934Z,10.42
2023-02-04T12:08:22.958Z,10.45
2023-02-04T12:09:22.948Z,10.39
2023-02-04T12:10:22.914Z,10.43
2023-02-04T12:11:22.909Z,10.58
2023-02-04T12:12:22.900Z,10.60
2023-02-04T12:13:22.892Z,10.55
2023-02-04T12:14:22.884Z,10.65
2023-02-04T12:15:22.889Z,10.61
2023-02-04T12:16:22.928Z,10.65
2023-02-04T12:17:22.866Z,10.61
2023-02-04T12:18:22.863Z,10.58
2023-02-04T12:19:22.857Z,10.68
2023-02-04T12:20:22.846Z,10.64
2023-02-04T12:21:22.841Z,10.61
2023-02-04T12:22:22.830Z,10.60
2023-02-04T12:23:22.836Z,10.57
2023-02-04T12:24:22.837Z,10.64
2023-02-04T12:25:22.810Z,10.62
2023-02-04T12:26:22.832Z,10.62
2023-02-04T12:27:22.801Z,10.68
2023-02-04T12:28:22.790Z,10.60
2023-02-04T12:29:22.784Z,10.72
2023-02-04T12:30:22.798Z,10.67
2023-02-04T12:31:22.833Z,10.67
2023-02-04T12:32:22.760Z,10.67
2023-02-04T12:33:22.757Z,10.75
2023-02-04T12:34:22.740Z,10.72
2023-02-04T12:35:22.738Z,10.79
2023-02-04T12:36:22.730Z,10.75
2023-02-04T12:37:22.730Z,10.78
2023-02-04T12:38:22.715Z,10.75
2023-02-04T12:39:22.716Z,10.78
2023-02-04T12:40:22.719Z,10.76
2023-02-04T12:41:22.701Z,10.78
2023-02-04T12:42:22.692Z,10.67
2023-02-04T12:43:22.681Z,10.72
2023-02-04T12:44:22.678Z,10.70
2023-02-04T12:45:22.696Z,10.73
2023-02-04T12:46:22.715Z,10.67
2023-02-04T12:47:22.653Z,10.65
2023-02-04T12:48:22.696Z,10.67
2023-02-04T12:49:22.644Z,10.64
2023-02-04T12:50:22.719Z,10.67
2023-02-04T12:51:22.636Z,10.72
2023-02-04T12:52:22.618Z,10.72
2023-02-04T12:53:22.625Z,10.67
2023-02-04T12:54:22.608Z,10.67
2023-02-04T12:55:22.599Z,10.64
2023-02-04T12:56:22.596Z,10.64
2023-02-04T12:57:22.589Z,10.79
2023-02-04T12:58:22.583Z,10.65
2023-02-04T12:59:22.576Z,10.72
2023-02-04T13:00:22.627Z,10.72
2023-02-04T13:01:22.565Z,10.80
2023-02-04T13:02:22.569Z,10.75
2023-02-04T13:03:22.559Z,10.72
2023-02-04T13:04:22.537Z,10.83
2023-02-04T13:05:22.545Z,10.67
2023-02-04T13:06:22.527Z,10.67
2023-02-04T13:07:22.520Z,10.75
2023-02-04T13:08:22.519Z,10.61
2023-02-04T13:09:22.505Z,10.62
2023-02-04T13:10:22.506Z,10.72
2023-02-04T13:11:22.494Z,10.76
2023-02-04T13:12:22.488Z,10.67